createdAt,value
2018-05-13T00:01:25.404Z,82.57
2018-05-13T00:03:53.767Z,82.83
2018-05-13T00:06:22.145Z,82.89
2018-05-13T00:08:50.472Z,83.01
2018-05-13T00:11:19.611Z,83.12
2018-05-13T00:13:47.951Z,83.23
2018-05-13T00:16:17.099Z,83.38
2018-05-13T00:18:45.421Z,83.79
2018-05-13T00:21:14.523Z,83.54
2018-05-13T00:23:42.882Z,83.48
2018-05-13T00:26:12.011Z,83.42
2018-05-13T00:28:40.331Z,83.51
2018-05-13T00:31:08.678Z,83.18
2018-05-13T00:33:37.003Z,83.25
2018-05-13T00:36:05.361Z,83.44
2018-05-13T00:38:33.687Z,83.62
2018-05-13T00:41:02.127Z,83.79
2018-05-13T00:43:30.567Z,84.27
2018-05-13T00:45:58.975Z,84.23
2018-05-13T00:48:27.339Z,84.09
2018-05-13T00:50:55.803Z,84.34
2018-05-13T00:53:24.129Z,84.61
2018-05-13T00:55:52.498Z,84.68
2018-05-13T00:58:20.805Z,84.85
2018-05-13T01:00:49.567Z,84.85
2018-05-13T01:03:17.909Z,85.02
2018-05-13T01:05:46.293Z,85.43
2018-05-13T01:08:14.640Z,85.54
2018-05-13T01:10:43.004Z,85.49
2018-05-13T01:13:11.326Z,85.53
2018-05-13T01:15:39.710Z,85.69
2018-05-13T01:18:08.170Z,85.78
2018-05-13T01:20:37.278Z,85.92
2018-05-13T01:23:05.624Z,85.94
2018-05-13T01:25:34.713Z,85.99
2018-05-13T01:28:03.070Z,86.16
2018-05-13T01:30:33.116Z,86.11
2018-05-13T01:33:01.862Z,86.12
2018-05-13T01:35:30.229Z,86.47
2018-05-13T01:37:58.565Z,86.58
2018-05-13T01:40:26.892Z,86.76
2018-05-13T01:42:55.686Z,86.88
2018-05-13T01:45:24.028Z,86.95
2018-05-13T01:47:52.405Z,86.97
2018-05-13T01:50:20.741Z,86.93
2018-05-13T01:52:49.115Z,87.07
2018-05-13T01:55:17.509Z,87.28
2018-05-13T01:57:46.917Z,87.45
2018-05-13T02:00:16.419Z,87.50
2018-05-13T02:02:45.643Z,87.67
2018-05-13T02:05:14.042Z,87.81
2018-05-13T02:07:42.458Z,88.13
2018-05-13T02:10:11.697Z,88.22
2018-05-13T02:12:40.028Z,88.27
2018-05-13T02:15:09.202Z,88.32
2018-05-13T02:17:37.705Z,88.27
2018-05-13T02:20:06.813Z,88.18
2018-05-13T02:22:35.382Z,88.31
2018-05-13T02:25:05.370Z,88.50
2018-05-13T02:27:33.746Z,88.60
2018-05-13T02:30:02.081Z,88.72
2018-05-13T02:32:30.430Z,88.66
2018-05-13T02:34:59.613Z,88.73
2018-05-13T02:37:28.745Z,88.85
2018-05-13T02:39:57.138Z,88.88
2018-05-13T02:42:26.237Z,88.83
2018-05-13T02:44:54.581Z,88.86
2018-05-13T02:47:24.462Z,88.99
2018-05-13T02:49:52.834Z,88.93
2018-05-13T02:52:21.214Z,89.06
2018-05-13T02:54:50.342Z,89.35
2018-05-13T02:57:19.474Z,89.50
2018-05-13T02:59:47.858Z,89.31
2018-05-13T03:02:16.370Z,89.49
2018-05-13T03:04:45.504Z,89.58
2018-05-13T03:07:14.310Z,89.53
2018-05-13T03:09:42.923Z,89.56
2018-05-13T03:12:11.354Z,89.61
2018-05-13T03:14:40.534Z,89.48
2018-05-13T03:17:09.053Z,89.56
2018-05-13T03:19:37.458Z,89.66
2018-05-13T03:22:05.858Z,89.80
2018-05-13T03:24:34.227Z,89.71
2018-05-13T03:27:02.602Z,89.67
2018-05-13T03:29:30.974Z,89.62
2018-05-13T03:31:59.322Z,89.71
2018-05-13T03:34:27.709Z,89.66
2018-05-13T03:36:56.646Z,89.46
2018-05-13T03:39:25.155Z,89.45
2018-05-13T03:41:53.503Z,89.53
2018-05-13T03:44:21.904Z,89.24
2018-05-13T03:46:51.074Z,89.06
2018-05-13T03:49:19.425Z,88.94
2018-05-13T03:51:48.762Z,88.96
2018-05-13T03:54:17.114Z,88.69
2018-05-13T03:56:45.490Z,88.57
2018-05-13T03:59:13.865Z,88.50
2018-05-13T04:01:42.290Z,88.27
2018-05-13T04:04:11.402Z,88.09
2018-05-13T04:06:39.727Z,87.78
2018-05-13T04:09:27.605Z,87.68
2018-05-13T04:12:13.839Z,87.27
2018-05-13T04:14:59.818Z,86.89
2018-05-13T04:17:28.116Z,86.35
2018-05-13T04:19:56.540Z,86.11
2018-05-13T04:22:25.650Z,85.86
2018-05-13T04:24:54.002Z,85.60
2018-05-13T04:27:23.113Z,85.06
2018-05-13T04:29:52.246Z,84.69
2018-05-13T04:32:20.664Z,84.28
2018-05-13T04:34:49.001Z,84.04
2018-05-13T04:37:17.396Z,83.91
2018-05-13T04:39:45.753Z,83.49
2018-05-13T04:42:14.880Z,83.11
2018-05-13T04:44:44.017Z,83.11
2018-05-13T04:47:12.773Z,82.81
2018-05-13T04:49:41.185Z,82.66
2018-05-13T04:52:10.264Z,82.37
2018-05-13T04:54:39.401Z,82.21
2018-05-13T04:57:09.301Z,81.91
2018-05-13T04:59:38.207Z,81.23
2018-05-13T05:02:06.697Z,80.67
2018-05-13T05:04:35.773Z,80.33
2018-05-13T05:07:04.216Z,79.95
2018-05-13T05:09:33.326Z,79.51
2018-05-13T05:12:02.469Z,78.80
2018-05-13T05:14:30.793Z,78.29
2018-05-13T05:16:59.563Z,77.52
2018-05-13T05:19:27.891Z,74.86
2018-05-13T05:21:56.283Z,74.21
2018-05-13T05:24:24.610Z,73.98
2018-05-13T05:26:53.814Z,73.41
2018-05-13T05:29:22.155Z,72.57
2018-05-13T05:31:50.543Z,72.88
2018-05-13T05:34:18.904Z,72.30
2018-05-13T05:36:47.284Z,71.66
2018-05-13T05:39:15.632Z,72.12
2018-05-13T05:41:43.960Z,71.46
2018-05-13T05:44:12.349Z,71.52
2018-05-13T05:46:40.663Z,71.75
2018-05-13T05:49:08.984Z,70.10
2018-05-13T05:51:37.350Z,69.46
2018-05-13T05:54:05.782Z,69.72
2018-05-13T05:56:34.143Z,68.82
2018-05-13T05:59:03.278Z,68.60
2018-05-13T06:01:31.696Z,68.62
2018-05-13T06:04:00.024Z,68.96
2018-05-13T06:06:28.408Z,68.23
2018-05-13T06:08:57.530Z,67.40
2018-05-13T06:11:25.848Z,68.46
2018-05-13T06:13:54.977Z,68.29
2018-05-13T06:16:23.304Z,67.62
2018-05-13T06:18:51.649Z,66.88
2018-05-13T06:21:20.009Z,66.96
2018-05-13T06:23:48.325Z,67.31
2018-05-13T06:26:16.685Z,67.50
2018-05-13T06:28:45.053Z,67.19
2018-05-13T06:31:13.397Z,67.02
2018-05-13T06:33:41.749Z,66.55
2018-05-13T06:36:10.619Z,66.64
2018-05-13T06:38:38.975Z,66.46
2018-05-13T06:41:07.310Z,66.45
2018-05-13T06:43:36.448Z,66.49
2018-05-13T06:46:04.778Z,66.21
2018-05-13T06:48:33.888Z,66.61
2018-05-13T06:51:02.327Z,66.34
2018-05-13T06:53:30.624Z,66.29
2018-05-13T06:55:59.018Z,65.39
2018-05-13T06:58:28.153Z,64.40
2018-05-13T07:00:56.468Z,64.51
2018-05-13T07:03:24.839Z,63.89
2018-05-13T07:05:53.207Z,64.00
2018-05-13T07:08:21.948Z,63.51
2018-05-13T07:10:50.446Z,63.65
2018-05-13T07:13:18.775Z,62.46
2018-05-13T07:15:47.148Z,62.61
2018-05-13T07:18:15.484Z,62.11
2018-05-13T07:20:43.829Z,61.30
2018-05-13T07:23:12.936Z,62.02
2018-05-13T07:25:41.340Z,61.16
2018-05-13T07:28:09.681Z,61.37
2018-05-13T07:30:38.769Z,60.67
2018-05-13T07:33:07.930Z,60.99
2018-05-13T07:35:36.309Z,60.41
2018-05-13T07:38:05.784Z,59.07
2018-05-13T07:40:34.150Z,61.61
2018-05-13T07:43:02.531Z,60.37
2018-05-13T07:45:30.966Z,60.06
2018-05-13T07:47:59.330Z,56.98
2018-05-13T07:50:27.933Z,56.13
2018-05-13T07:52:57.099Z,55.46
2018-05-13T07:55:25.807Z,55.34
2018-05-13T07:57:55.932Z,56.09
2018-05-13T08:00:24.326Z,56.30
2018-05-13T08:02:54.078Z,52.63
2018-05-13T08:05:22.495Z,53.44
2018-05-13T08:07:50.967Z,56.30
2018-05-13T08:10:19.376Z,50.50
2018-05-13T08:12:48.796Z,53.61
2018-05-13T08:15:17.225Z,50.99
2018-05-13T08:17:45.940Z,51.68
2018-05-13T08:20:15.903Z,50.33
2018-05-13T08:22:50.061Z,50.00
2018-05-13T08:25:18.489Z,49.29
2018-05-13T08:27:46.832Z,50.35
2018-05-13T08:30:15.964Z,47.73
2018-05-13T08:32:45.052Z,47.28
2018-05-13T08:35:13.391Z,46.56
2018-05-13T08:37:42.499Z,46.96
2018-05-13T08:40:10.867Z,44.88
2018-05-13T08:42:40.341Z,45.80
2018-05-13T08:45:08.783Z,46.45
2018-05-13T08:47:37.105Z,45.09
2018-05-13T08:50:05.553Z,46.11
2018-05-13T08:52:34.135Z,43.17
2018-05-13T08:55:02.507Z,49.15
2018-05-13T08:57:31.224Z,44.93
2018-05-13T08:59:59.570Z,44.63
2018-05-13T09:02:27.936Z,42.95
2018-05-13T09:04:56.669Z,42.50
2018-05-13T09:07:25.411Z,45.08
2018-05-13T09:09:53.723Z,45.50
2018-05-13T09:12:22.138Z,43.57
2018-05-13T09:14:50.855Z,41.44
2018-05-13T09:17:19.601Z,40.52
2018-05-13T09:19:48.108Z,37.80
2018-05-13T09:22:16.618Z,39.47
2018-05-13T09:24:45.127Z,39.68
2018-05-13T09:27:13.557Z,35.86
2018-05-13T09:29:41.917Z,39.98
2018-05-13T09:32:11.012Z,37.90
2018-05-13T09:34:40.141Z,39.08
2018-05-13T09:37:08.476Z,34.04
2018-05-13T09:39:37.613Z,37.08
2018-05-13T09:42:06.046Z,38.47
2018-05-13T09:44:35.876Z,37.78
2018-05-13T09:47:05.041Z,36.81
2018-05-13T09:49:33.347Z,36.06
2018-05-13T09:52:02.475Z,34.79
2018-05-13T09:54:32.424Z,30.28
2018-05-13T09:57:00.770Z,35.67
2018-05-13T09:59:29.155Z,35.61
2018-05-13T10:01:58.295Z,36.01
2018-05-13T10:04:27.399Z,36.38
2018-05-13T10:06:56.551Z,34.44
2018-05-13T10:09:24.878Z,33.78
2018-05-13T10:11:54.029Z,36.73
2018-05-13T10:14:22.882Z,36.54
2018-05-13T10:16:51.216Z,31.70
2018-05-13T10:19:19.798Z,31.23
2018-05-13T10:21:48.994Z,32.10
2018-05-13T10:24:17.343Z,31.43
2018-05-13T10:26:46.077Z,34.15
2018-05-13T10:29:14.579Z,35.91
2018-05-13T10:31:42.916Z,35.74
2018-05-13T10:34:11.275Z,32.45
2018-05-13T10:36:39.595Z,35.02
2018-05-13T10:39:07.930Z,34.63
2018-05-13T10:41:36.276Z,35.37
2018-05-13T10:44:05.530Z,33.88
2018-05-13T10:46:33.906Z,35.37
2018-05-13T10:49:03.298Z,34.52
2018-05-13T10:51:31.662Z,36.35
2018-05-13T10:54:00.070Z,35.84
2018-05-13T10:56:28.926Z,32.72
2018-05-13T10:58:57.327Z,30.88
2018-05-13T11:01:25.630Z,29.07
2018-05-13T11:03:54.017Z,34.64
2018-05-13T11:06:23.670Z,28.39
2018-05-13T11:08:52.029Z,33.64
2018-05-13T11:11:20.512Z,29.34
2018-05-13T11:13:48.882Z,31.68
2018-05-13T11:16:17.251Z,35.22
2018-05-13T11:18:45.646Z,33.59
2018-05-13T11:21:13.992Z,29.89
2018-05-13T11:23:43.090Z,31.78
2018-05-13T11:26:11.460Z,32.56
2018-05-13T11:28:40.549Z,32.09
2018-05-13T11:31:10.437Z,30.41
2018-05-13T11:33:39.347Z,31.22
2018-05-13T11:36:08.046Z,28.60
2018-05-13T11:38:37.151Z,28.46
2018-05-13T11:41:05.501Z,28.49
2018-05-13T11:43:33.844Z,28.59
2018-05-13T11:46:02.166Z,29.29
2018-05-13T11:48:31.334Z,28.15
2018-05-13T11:50:59.749Z,26.65
2018-05-13T11:53:28.894Z,26.23
2018-05-13T11:55:57.249Z,25.31
2018-05-13T11:58:25.620Z,27.24
2018-05-13T12:00:54.097Z,27.02
2018-05-13T12:03:22.461Z,26.38
2018-05-13T12:05:50.998Z,26.92
2018-05-13T12:08:19.369Z,26.09
2018-05-13T12:10:47.721Z,26.85
2018-05-13T12:13:16.096Z,26.01
2018-05-13T12:15:44.444Z,24.28
2018-05-13T12:18:14.282Z,24.79
2018-05-13T12:20:42.700Z,25.66
2018-05-13T12:23:11.156Z,24.83
2018-05-13T12:25:39.516Z,24.58
2018-05-13T12:28:08.879Z,24.80
2018-05-13T12:30:37.205Z,25.31
2018-05-13T12:33:06.367Z,24.30
2018-05-13T12:35:36.506Z,25.20
2018-05-13T12:38:09.813Z,25.22
2018-05-13T12:40:38.392Z,25.16
2018-05-13T12:43:07.458Z,24.07
2018-05-13T12:45:36.556Z,24.23
2018-05-13T12:48:05.693Z,25.74
2018-05-13T12:50:34.032Z,25.67
2018-05-13T12:53:03.170Z,26.07
2018-05-13T12:55:32.260Z,26.53
2018-05-13T12:58:00.626Z,25.29
2018-05-13T13:00:28.985Z,24.81
2018-05-13T13:02:59.065Z,23.86
2018-05-13T13:05:27.377Z,24.93
2018-05-13T13:07:56.899Z,24.49
2018-05-13T13:10:25.223Z,24.29
2018-05-13T13:12:54.469Z,24.14
2018-05-13T13:15:22.745Z,23.25
2018-05-13T13:17:51.071Z,24.97
2018-05-13T13:20:19.444Z,24.06
2018-05-13T13:22:47.773Z,22.65
2018-05-13T13:25:16.103Z,23.73
2018-05-13T13:27:44.477Z,23.21
2018-05-13T13:30:12.819Z,23.97
2018-05-13T13:32:41.203Z,24.12
2018-05-13T13:35:09.566Z,24.00
2018-05-13T13:37:38.876Z,25.06
2018-05-13T13:40:07.222Z,23.02
2018-05-13T13:42:36.372Z,24.11
2018-05-13T13:45:04.753Z,24.61
2018-05-13T13:47:33.084Z,23.95
2018-05-13T13:50:02.203Z,24.53
2018-05-13T13:52:31.482Z,24.29
2018-05-13T13:55:00.625Z,23.53
2018-05-13T13:57:28.976Z,24.27
2018-05-13T13:59:57.944Z,23.30
2018-05-13T14:02:26.401Z,22.60
2018-05-13T14:04:54.764Z,23.12
2018-05-13T14:07:23.107Z,23.30
2018-05-13T14:09:51.473Z,23.68
2018-05-13T14:12:19.805Z,23.94
2018-05-13T14:14:48.129Z,24.03
2018-05-13T14:17:16.509Z,23.40
2018-05-13T14:19:45.729Z,24.10
2018-05-13T14:22:14.155Z,24.22
2018-05-13T14:24:43.260Z,25.02
2018-05-13T14:27:13.117Z,25.67
2018-05-13T14:29:41.441Z,24.05
2018-05-13T14:32:10.642Z,24.71
2018-05-13T14:34:38.932Z,24.59
2018-05-13T14:37:07.312Z,24.72
2018-05-13T14:39:36.053Z,23.44
2018-05-13T14:42:04.406Z,23.68
2018-05-13T14:44:33.900Z,23.78
2018-05-13T14:47:02.943Z,23.27
2018-05-13T14:49:31.282Z,23.06
2018-05-13T14:51:59.625Z,22.92
2018-05-13T14:54:28.766Z,23.86
2018-05-13T14:56:57.174Z,24.16
2018-05-13T14:59:25.575Z,23.52
2018-05-13T15:01:54.725Z,26.50
2018-05-13T15:04:23.057Z,25.70
2018-05-13T15:06:51.392Z,28.60
2018-05-13T15:09:19.771Z,27.48
2018-05-13T15:11:48.150Z,29.74
2018-05-13T15:14:16.916Z,25.40
2018-05-13T15:16:45.252Z,26.75
2018-05-13T15:19:13.654Z,27.57
2018-05-13T15:21:42.016Z,24.87
2018-05-13T15:24:10.349Z,24.94
2018-05-13T15:26:38.695Z,25.51
2018-05-13T15:29:07.134Z,28.03
2018-05-13T15:31:35.463Z,28.07
2018-05-13T15:34:03.843Z,25.16
2018-05-13T15:36:32.213Z,25.14
2018-05-13T15:39:00.580Z,24.68
2018-05-13T15:41:28.926Z,25.25
2018-05-13T15:43:58.048Z,23.60
2018-05-13T15:46:26.368Z,26.47
2018-05-13T15:48:54.724Z,24.07
2018-05-13T15:51:23.088Z,26.36
2018-05-13T15:53:51.511Z,27.89
2018-05-13T15:56:19.884Z,27.12
2018-05-13T15:58:48.218Z,28.41
2018-05-13T16:01:16.545Z,25.90
2018-05-13T16:03:44.914Z,24.29
2018-05-13T16:06:13.308Z,25.82
2018-05-13T16:08:42.433Z,27.54
2018-05-13T16:11:10.735Z,25.74
2018-05-13T16:13:39.864Z,26.52
2018-05-13T16:16:08.608Z,27.57
2018-05-13T16:18:36.960Z,30.97
2018-05-13T16:21:07.424Z,29.25
2018-05-13T16:23:35.748Z,27.19
2018-05-13T16:26:04.900Z,26.69
2018-05-13T16:28:33.256Z,26.88
2018-05-13T16:31:01.752Z,29.06
2018-05-13T16:33:30.119Z,24.91
2018-05-13T16:35:58.500Z,26.75
2018-05-13T16:38:26.977Z,25.22
2018-05-13T16:40:55.361Z,25.78
2018-05-13T16:43:23.750Z,25.73
2018-05-13T16:45:55.411Z,27.12
2018-05-13T16:48:26.613Z,28.09
2018-05-13T16:50:55.029Z,29.91
2018-05-13T16:53:23.419Z,26.12
2018-05-13T16:55:51.777Z,29.38
2018-05-13T16:58:20.177Z,26.46
2018-05-13T17:00:48.610Z,26.05
2018-05-13T17:03:17.774Z,26.04
2018-05-13T17:05:46.111Z,26.19
2018-05-13T17:08:14.469Z,28.60
2018-05-13T17:10:44.119Z,29.66
2018-05-13T17:13:12.727Z,27.92
2018-05-13T17:15:42.269Z,27.76
2018-05-13T17:18:11.617Z,27.20
2018-05-13T17:20:40.343Z,27.28
2018-05-13T17:23:09.541Z,28.46
2018-05-13T17:25:37.952Z,28.20
2018-05-13T17:31:07.295Z,28.00
2018-05-13T17:33:37.968Z,28.77
2018-05-13T17:36:06.614Z,27.80
2018-05-13T17:38:36.111Z,29.40
2018-05-13T17:41:04.538Z,28.77
2018-05-13T17:43:32.928Z,28.51
2018-05-13T17:46:02.699Z,28.72
2018-05-13T17:48:31.077Z,28.87
2018-05-13T17:51:01.104Z,28.77
2018-05-13T17:53:29.547Z,29.25
2018-05-13T17:55:58.691Z,30.12
2018-05-13T17:58:27.803Z,29.71
2018-05-13T18:00:56.411Z,30.36
2018-05-13T18:03:24.753Z,29.56
2018-05-13T18:05:53.957Z,29.64
2018-05-13T18:08:22.301Z,30.71
2018-05-13T18:10:50.759Z,31.37
2018-05-13T18:13:20.125Z,31.75
2018-05-13T18:15:48.551Z,31.64
2018-05-13T18:18:16.971Z,31.93
2018-05-13T18:20:45.289Z,31.96
2018-05-13T18:23:13.639Z,31.77
2018-05-13T18:25:42.263Z,32.28
2018-05-13T18:28:10.632Z,32.91
2018-05-13T18:30:39.013Z,32.65
2018-05-13T18:33:08.393Z,33.35
2018-05-13T18:35:36.752Z,33.50
2018-05-13T18:38:05.121Z,34.57
2018-05-13T18:40:33.496Z,33.83
2018-05-13T18:43:03.506Z,34.19
2018-05-13T18:45:33.008Z,34.20
2018-05-13T18:48:02.114Z,35.13
2018-05-13T18:50:31.251Z,35.36
2018-05-13T18:52:59.623Z,37.01
2018-05-13T18:55:27.961Z,34.79
2018-05-13T18:57:57.080Z,34.85
2018-05-13T19:00:32.767Z,34.80
2018-05-13T19:03:03.065Z,35.62
2018-05-13T19:05:31.453Z,36.04
2018-05-13T19:07:59.838Z,36.36
2018-05-13T19:10:29.015Z,36.18
2018-05-13T19:12:57.403Z,35.98
2018-05-13T19:15:25.828Z,36.94
2018-05-13T19:17:54.176Z,37.55
2018-05-13T19:20:22.639Z,36.77
2018-05-13T19:22:51.010Z,37.70
2018-05-13T19:25:19.417Z,37.03
2018-05-13T19:27:47.782Z,37.11
2018-05-13T19:30:18.671Z,36.59
2018-05-13T19:32:47.794Z,36.49
2018-05-13T19:35:17.019Z,36.98
2018-05-13T19:37:45.766Z,37.02
2018-05-13T19:40:14.186Z,36.62
2018-05-13T19:42:42.612Z,37.27
2018-05-13T19:45:11.815Z,37.09
2018-05-13T19:47:40.187Z,37.58
2018-05-13T19:50:09.346Z,37.86
2018-05-13T19:52:37.738Z,37.96
2018-05-13T19:55:06.234Z,38.59
2018-05-13T19:57:35.392Z,38.88
2018-05-13T20:00:03.766Z,38.02
2018-05-13T20:02:32.114Z,37.85
2018-05-13T20:05:00.646Z,37.50
2018-05-13T20:07:29.009Z,37.86
2018-05-13T20:09:57.385Z,37.93
2018-05-13T20:12:25.762Z,38.03
2018-05-13T20:14:54.153Z,38.63
2018-05-13T20:17:22.557Z,38.56
2018-05-13T20:19:51.665Z,38.61
2018-05-13T20:22:20.826Z,38.71
2018-05-13T20:24:50.304Z,38.79
2018-05-13T20:27:18.752Z,39.12
2018-05-13T20:29:47.098Z,39.48
2018-05-13T20:32:15.478Z,39.83
2018-05-13T20:34:43.880Z,40.40
2018-05-13T20:37:13.758Z,40.43
2018-05-13T20:39:42.148Z,40.65
2018-05-13T20:42:10.530Z,41.24
2018-05-13T20:44:38.910Z,41.70
2018-05-13T20:47:07.220Z,41.55
2018-05-13T20:49:35.578Z,41.82
2018-05-13T20:52:03.991Z,41.87
2018-05-13T20:54:32.314Z,42.08
2018-05-13T20:57:00.668Z,42.27
2018-05-13T20:59:29.954Z,42.67
2018-05-13T21:01:58.326Z,43.09
2018-05-13T21:04:26.713Z,42.92
2018-05-13T21:06:55.046Z,43.54
2018-05-13T21:09:24.168Z,43.44
2018-05-13T21:11:52.478Z,43.85
2018-05-13T21:14:20.831Z,43.99
2018-05-13T21:16:49.258Z,43.78
2018-05-13T21:19:17.690Z,43.94
2018-05-13T21:21:46.074Z,44.15
2018-05-13T21:24:15.579Z,44.22
2018-05-13T21:26:43.914Z,44.43
2018-05-13T21:29:13.044Z,44.46
2018-05-13T21:31:41.361Z,44.73
2018-05-13T21:34:09.721Z,44.43
2018-05-13T21:36:38.053Z,44.54
2018-05-13T21:39:06.423Z,44.72
2018-05-13T21:41:35.921Z,45.09
2018-05-13T21:44:05.022Z,45.21
2018-05-13T21:46:34.154Z,45.18
2018-05-13T21:49:02.497Z,45.59
2018-05-13T21:51:31.585Z,45.48
2018-05-13T21:53:59.965Z,45.80
2018-05-13T21:56:29.062Z,45.74
2018-05-13T21:58:57.412Z,46.07
2018-05-13T22:01:25.750Z,46.24
2018-05-13T22:03:54.094Z,46.38
2018-05-13T22:06:23.206Z,46.39
2018-05-13T22:08:51.584Z,46.48
2018-05-13T22:11:19.951Z,46.54
2018-05-13T22:13:49.075Z,46.58
2018-05-13T22:16:17.410Z,46.71
2018-05-13T22:18:46.536Z,46.83
2018-05-13T22:21:14.897Z,46.96
2018-05-13T22:23:43.700Z,46.88
2018-05-13T22:26:12.780Z,47.42
2018-05-13T22:28:41.917Z,47.84
2018-05-13T22:31:10.284Z,47.78
2018-05-13T22:33:38.649Z,48.45
2018-05-13T22:36:07.021Z,48.72
2018-05-13T22:38:35.376Z,48.74
2018-05-13T22:41:03.739Z,48.91
2018-05-13T22:43:32.330Z,49.21
2018-05-13T22:46:00.656Z,49.81
2018-05-13T22:48:29.415Z,49.85
2018-05-13T22:50:58.532Z,49.89
2018-05-13T22:53:26.858Z,49.95
2018-05-13T22:55:55.221Z,50.21
2018-05-13T22:58:23.545Z,50.38
2018-05-13T23:00:51.891Z,50.46
2018-05-13T23:03:20.248Z,50.80
2018-05-13T23:05:48.578Z,51.27
2018-05-13T23:08:16.937Z,50.98
2018-05-13T23:10:46.030Z,51.34
2018-05-13T23:13:14.344Z,52.03
2018-05-13T23:15:42.741Z,52.13
2018-05-13T23:18:11.072Z,51.79
2018-05-13T23:20:40.219Z,51.97
2018-05-13T23:23:09.356Z,52.35
2018-05-13T23:25:38.486Z,52.07
2018-05-13T23:28:06.820Z,52.35
2018-05-13T23:30:35.252Z,52.51
2018-05-13T23:33:03.616Z,52.54
2018-05-13T23:35:32.332Z,53.05
2018-05-13T23:38:01.058Z,53.43
2018-05-13T23:40:30.210Z,53.06
2018-05-13T23:42:58.551Z,53.28
2018-05-13T23:45:26.868Z,53.52
2018-05-13T23:47:55.188Z,53.82
2018-05-13T23:50:24.311Z,53.85
2018-05-13T23:52:52.635Z,53.84
2018-05-13T23:55:21.003Z,53.99
2018-05-13T23:57:49.376Z,54.67
